Time;durP1;ratioP1;P1;durP2;ratioP2;P2;SDS_P1;SDS_P2;PMS_P1;PMS_P2;Temp;Humidity;BMP_temperature;BMP_pressure;BME280_temperature;BME280_humidity;BME280_pressure;Samples;Min_cycle;Max_cycle;Signal;HPM_P1;HPM_P2
2024/01/25 00:00:58;;;;;;;2.57;1.10;;;11.70;99.90;;;;;;7389000;19;20222;-75
2024/01/25 00:03:23;;;;;;;3.25;0.85;;;11.60;99.90;;;;;;7368637;19;20197;-73
2024/01/25 00:05:49;;;;;;;3.00;0.77;;;11.60;99.90;;;;;;7368107;19;20210;-77
2024/01/25 00:08:18;;;;;;;4.93;1.47;;;11.60;99.90;;;;;;7366763;19;20193;-74
2024/01/25 00:10:43;;;;;;;1.97;0.93;;;11.50;99.90;;;;;;7369247;19;20193;-74
2024/01/25 00:13:09;;;;;;;1.17;0.77;;;11.70;99.90;;;;;;7390121;19;20683;-73
2024/01/25 00:15:35;;;;;;;3.50;1.40;;;11.70;99.90;;;;;;7368228;19;20257;-74
2024/01/25 00:18:00;;;;;;;1.20;0.63;;;11.70;99.90;;;;;;7369323;19;20202;-74
2024/01/25 00:20:26;;;;;;;2.70;0.80;;;11.80;99.90;;;;;;7364566;19;20308;-74
2024/01/25 00:22:51;;;;;;;2.33;0.70;;;11.80;99.90;;;;;;7366113;19;20198;-75
2024/01/25 00:25:17;;;;;;;3.13;1.33;;;11.90;99.90;;;;;;7386178;19;20168;-74
2024/01/25 00:27:44;;;;;;;3.87;1.63;;;11.80;99.90;;;;;;7367976;19;20190;-74
2024/01/25 00:30:10;;;;;;;0.50;0.50;;;11.80;99.90;;;;;;7365620;19;20182;-73
2024/01/25 00:32:36;;;;;;;3.07;1.53;;;11.80;99.90;;;;;;7367648;19;20564;-74
2024/01/25 00:35:02;;;;;;;1.60;1.13;;;11.80;99.90;;;;;;7367785;19;20191;-74
2024/01/25 00:37:28;;;;;;;2.47;1.30;;;11.80;99.90;;;;;;7368485;19;20138;-74
2024/01/25 00:39:54;;;;;;;0.93;0.77;;;11.80;99.90;;;;;;7390509;19;20260;-75
2024/01/25 00:42:25;;;;;;;2.67;1.73;;;11.70;99.90;;;;;;7367427;19;20185;-74
2024/01/25 00:44:51;;;;;;;1.87;1.03;;;11.80;99.90;;;;;;7368444;19;20185;-75
2024/01/25 00:47:20;;;;;;;1.20;1.07;;;11.80;99.90;;;;;;7366277;19;20204;-74
2024/01/25 00:49:46;;;;;;;9.20;1.63;;;11.80;99.90;;;;;;7367918;19;20568;-75
2024/01/25 00:52:12;;;;;;;1.25;0.68;;;11.70;99.90;;;;;;7389241;19;20163;-74
2024/01/25 00:54:37;;;;;;;3.15;1.17;;;11.50;99.90;;;;;;7367253;19;20197;-74
2024/01/25 00:57:04;;;;;;;2.03;0.80;;;11.70;99.90;;;;;;7365739;19;20186;-74
2024/01/25 00:59:31;;;;;;;1.37;0.80;;;11.80;99.90;;;;;;7365521;19;20190;-75
2024/01/25 01:01:59;;;;;;;0.57;0.50;;;11.70;99.90;;;;;;7366736;19;20202;-77
2024/01/25 01:04:25;;;;;;;2.03;0.73;;;11.80;99.90;;;;;;7365264;19;20718;-75
2024/01/25 01:06:51;;;;;;;4.83;0.97;;;11.70;99.90;;;;;;7388840;19;20152;-74
2024/01/25 01:09:17;;;;;;;1.07;0.80;;;11.70;99.90;;;;;;7365082;19;20186;-74
2024/01/25 01:11:43;;;;;;;0.73;0.73;;;11.70;99.90;;;;;;7365305;19;20246;-75
2024/01/25 01:14:09;;;;;;;1.57;0.80;;;11.70;99.90;;;;;;7366129;19;20194;-74
2024/01/25 01:16:35;;;;;;;3.50;1.23;;;11.90;99.90;;;;;;7365568;19;20175;-75
2024/01/25 01:19:05;;;;;;;4.85;1.20;;;11.90;99.90;;;;;;7388797;19;20138;-74
2024/01/25 01:21:32;;;;;;;0.95;0.50;;;11.90;99.90;;;;;;7364714;19;20610;-75
2024/01/25 01:23:57;;;;;;;3.53;1.42;;;11.80;99.90;;;;;;7364967;19;20183;-74
2024/01/25 01:26:23;;;;;;;1.88;0.70;;;11.80;99.90;;;;;;7364897;19;20291;-74
2024/01/25 01:28:49;;;;;;;1.83;1.02;;;11.90;99.90;;;;;;7365319;19;20182;-75
2024/01/25 01:31:14;;;;;;;1.15;0.88;;;11.90;99.90;;;;;;7384043;19;20154;-74
2024/01/25 01:33:40;;;;;;;2.20;0.70;;;11.90;99.90;;;;;;7366707;19;20218;-73
2024/01/25 01:36:06;;;;;;;0.43;0.43;;;11.80;99.90;;;;;;7366145;19;20244;-74
2024/01/25 01:38:32;;;;;;;2.83;1.13;;;11.80;99.90;;;;;;7365728;19;20182;-74
2024/01/25 01:40:57;;;;;;;2.20;0.73;;;11.50;99.90;;;;;;7364919;19;20205;-75
2024/01/25 01:43:23;;;;;;;0.88;0.50;;;11.70;99.90;;;;;;7363227;19;20167;-74
2024/01/25 01:45:49;;;;;;;0.80;0.73;;;11.90;99.90;;;;;;7389047;19;20134;-74
2024/01/25 01:48:16;;;;;;;4.63;1.40;;;11.90;99.90;;;;;;7365813;19;20293;-74
2024/01/25 01:50:44;;;;;;;8.23;1.30;;;11.80;99.90;;;;;;7364461;19;20186;-75
2024/01/25 01:53:10;;;;;;;1.95;0.70;;;11.80;99.90;;;;;;7365957;19;20178;-75
2024/01/25 01:55:37;;;;;;;2.95;1.48;;;11.90;99.90;;;;;;7365297;19;20320;-74
2024/01/25 01:58:03;;;;;;;1.95;0.60;;;11.80;99.90;;;;;;7381827;19;20138;-74
2024/01/25 02:00:30;;;;;;;0.95;0.55;;;11.80;99.90;;;;;;7366941;19;20836;-74
2024/01/25 02:02:57;;;;;;;2.72;0.70;;;11.80;99.90;;;;;;7366397;19;20533;-75
2024/01/25 02:05:23;;;;;;;4.00;1.23;;;11.70;99.90;;;;;;7362566;19;20190;-74
2024/01/25 02:07:49;;;;;;;0.45;0.45;;;11.60;99.90;;;;;;7364026;19;20267;-74
2024/01/25 02:10:15;;;;;;;0.95;0.57;;;11.70;99.90;;;;;;7384517;19;20162;-74
2024/01/25 02:12:41;;;;;;;0.85;0.65;;;11.60;99.90;;;;;;7365973;19;20190;-74
2024/01/25 02:15:07;;;;;;;3.00;1.77;;;11.40;99.90;;;;;;7365179;19;20189;-74
2024/01/25 02:17:33;;;;;;;0.63;0.50;;;11.60;99.90;;;;;;7361693;19;20186;-75
2024/01/25 02:20:00;;;;;;;3.85;1.55;;;11.60;99.90;;;;;;7366793;19;20261;-75
2024/01/25 02:22:26;;;;;;;1.85;0.95;;;11.50;99.90;;;;;;7362743;19;20142;-74
2024/01/25 02:24:51;;;;;;;3.47;0.80;;;11.70;99.90;;;;;;7387292;19;20198;-74
2024/01/25 02:27:17;;;;;;;1.80;1.20;;;11.60;99.90;;;;;;7363224;19;20203;-75
2024/01/25 02:29:43;;;;;;;2.37;1.63;;;11.70;99.90;;;;;;7364379;19;20214;-74
2024/01/25 02:32:08;;;;;;;0.40;0.40;;;11.70;99.90;;;;;;7364959;19;20196;-74
2024/01/25 02:34:34;;;;;;;0.98;0.55;;;11.90;99.90;;;;;;7365194;19;20155;-74
2024/01/25 02:36:59;;;;;;;1.47;0.67;;;11.80;99.90;;;;;;7385310;19;20151;-74
2024/01/25 02:39:25;;;;;;;3.03;0.88;;;11.80;99.90;;;;;;7362213;19;20290;-72
2024/01/25 02:41:50;;;;;;;1.75;0.93;;;11.60;99.90;;;;;;7367905;19;20479;-74
2024/01/25 02:44:16;;;;;;;4.28;1.15;;;11.70;99.90;;;;;;7371570;19;20181;-74
2024/01/25 02:46:44;;;;;;;5.90;1.33;;;11.70;99.90;;;;;;7372228;19;20194;-73
2024/01/25 02:49:10;;;;;;;1.57;1.23;;;11.70;99.90;;;;;;7394335;19;20142;-73
2024/01/25 02:51:36;;;;;;;2.57;1.10;;;11.70;99.90;;;;;;7371860;19;20189;-73
2024/01/25 02:54:02;;;;;;;0.68;0.35;;;11.70;99.90;;;;;;7370581;19;20194;-74
2024/01/25 02:56:33;;;;;;;2.53;0.70;;;11.60;99.90;;;;;;7372613;19;20189;-75
2024/01/25 02:58:59;;;;;;;3.83;0.90;;;11.70;99.90;;;;;;7369279;19;20194;-74
2024/01/25 03:01:25;;;;;;;3.47;1.57;;;11.70;99.90;;;;;;7365170;19;20143;-74
2024/01/25 03:03:50;;;;;;;3.43;1.23;;;11.80;99.90;;;;;;7393046;19;20131;-74
2024/01/25 03:06:16;;;;;;;2.38;0.88;;;11.70;99.90;;;;;;7370465;19;20214;-73
2024/01/25 03:08:41;;;;;;;2.67;0.80;;;11.70;99.90;;;;;;7370551;19;20223;-73
2024/01/25 03:11:07;;;;;;;1.50;0.80;;;11.60;99.90;;;;;;7371190;19;20182;-73
2024/01/25 03:13:34;;;;;;;0.80;0.80;;;11.60;99.90;;;;;;7369860;19;20535;-73
2024/01/25 03:15:59;;;;;;;1.67;1.07;;;11.60;99.90;;;;;;7392098;19;20143;-73
2024/01/25 03:18:25;;;;;;;0.87;0.40;;;11.60;99.90;;;;;;7370406;19;20195;-73
2024/01/25 03:20:51;;;;;;;1.90;1.80;;;11.60;99.90;;;;;;7368920;19;20259;-73
2024/01/25 03:23:16;;;;;;;1.58;0.52;;;11.60;99.90;;;;;;7368964;19;20193;-74
2024/01/25 03:25:42;;;;;;;2.07;0.83;;;11.60;99.90;;;;;;7370790;19;20186;-74
2024/01/25 03:28:09;;;;;;;5.78;1.88;;;11.80;99.90;;;;;;7392260;19;20518;-73
2024/01/25 03:30:35;;;;;;;1.37;0.57;;;11.70;99.90;;;;;;7368850;19;20707;-75
2024/01/25 03:33:00;;;;;;;1.60;1.10;;;11.50;99.90;;;;;;7369456;19;20219;-74
2024/01/25 03:35:26;;;;;;;1.07;0.60;;;11.50;99.90;;;;;;7369392;19;20916;-74
2024/01/25 03:37:51;;;;;;;2.90;0.93;;;11.50;99.90;;;;;;7369395;19;20193;-75
2024/01/25 03:40:17;;;;;;;3.07;1.57;;;11.50;99.90;;;;;;7391893;19;20241;-74
2024/01/25 03:42:43;;;;;;;2.50;0.90;;;11.60;99.90;;;;;;7369165;19;20831;-74
2024/01/25 03:45:08;;;;;;;0.80;0.60;;;11.30;99.90;;;;;;7370519;19;20223;-74
2024/01/25 03:47:34;;;;;;;0.90;0.90;;;11.50;99.90;;;;;;7369597;19;20603;-74
2024/01/25 03:50:00;;;;;;;2.87;1.03;;;11.40;99.90;;;;;;7369294;19;20199;-74
2024/01/25 03:52:25;;;;;;;3.60;1.60;;;11.40;99.90;;;;;;7367365;19;20123;-74
2024/01/25 03:54:51;;;;;;;2.15;1.10;;;11.50;99.90;;;;;;7392808;19;20152;-74
2024/01/25 03:57:17;;;;;;;1.20;0.70;;;11.60;99.90;;;;;;7367358;19;20186;-74
2024/01/25 03:59:42;;;;;;;3.07;0.80;;;11.60;99.90;;;;;;7363704;19;20189;-74
2024/01/25 04:02:09;;;;;;;2.13;0.60;;;11.70;99.90;;;;;;7368856;19;20240;-74
2024/01/25 04:04:34;;;;;;;1.10;0.67;;;11.70;99.90;;;;;;7366965;19;20624;-74
2024/01/25 04:07:00;;;;;;;2.30;0.53;;;11.70;99.90;;;;;;7390406;19;20126;-74
2024/01/25 04:09:26;;;;;;;0.83;0.73;;;11.70;99.90;;;;;;7369639;19;20182;-73
2024/01/25 04:11:51;;;;;;;1.57;0.57;;;11.70;99.90;;;;;;7368003;19;20217;-74
2024/01/25 04:14:17;;;;;;;1.00;0.70;;;11.60;99.90;;;;;;7369261;19;20178;-73
2024/01/25 04:16:42;;;;;;;3.13;1.07;;;11.50;99.90;;;;;;7365908;19;20186;-73
2024/01/25 04:19:12;;;;;;;2.20;1.25;;;11.40;99.90;;;;;;7391343;19;20160;-73
2024/01/25 04:21:38;;;;;;;2.37;1.37;;;11.40;99.90;;;;;;7365829;19;20178;-73
2024/01/25 04:24:04;;;;;;;2.83;1.43;;;11.50;99.90;;;;;;7368236;19;20655;-75
2024/01/25 04:26:29;;;;;;;3.33;1.42;;;11.20;99.90;;;;;;7365678;19;20210;-74
2024/01/25 04:28:55;;;;;;;1.58;0.75;;;11.30;99.90;;;;;;7370192;19;20174;-74
2024/01/25 04:31:21;;;;;;;0.47;0.45;;;11.40;99.90;;;;;;7375956;19;20130;-73
2024/01/25 04:33:46;;;;;;;3.47;1.02;;;11.40;99.90;;;;;;7388522;19;20157;-72
2024/01/25 04:36:12;;;;;;;2.00;0.77;;;11.50;99.90;;;;;;7368386;19;20181;-74
2024/01/25 04:38:38;;;;;;;1.83;0.68;;;11.50;99.90;;;;;;7367848;19;20687;-74
2024/01/25 04:41:05;;;;;;;2.93;1.03;;;11.50;99.90;;;;;;7369424;19;20734;-74
2024/01/25 04:43:35;;;;;;;0.53;0.53;;;11.40;99.90;;;;;;7367381;19;20497;-74
2024/01/25 04:46:01;;;;;;;3.13;1.37;;;11.50;99.90;;;;;;7388388;19;20475;-74
2024/01/25 04:48:27;;;;;;;3.13;1.83;;;11.50;99.90;;;;;;7368757;19;20261;-75
2024/01/25 04:50:52;;;;;;;2.13;0.87;;;11.50;99.90;;;;;;7363688;19;20194;-75
2024/01/25 04:53:18;;;;;;;3.17;0.93;;;11.40;99.90;;;;;;7368575;19;20186;-74
2024/01/25 04:55:43;;;;;;;0.60;0.55;;;11.40;99.90;;;;;;7363772;19;20185;-74
2024/01/25 04:58:09;;;;;;;1.90;1.57;;;11.40;99.90;;;;;;7387836;19;20198;-75
2024/01/25 05:00:36;;;;;;;1.93;1.03;;;11.10;99.90;;;;;;7364524;19;20181;-74
2024/01/25 05:03:02;;;;;;;1.00;0.80;;;11.30;99.90;;;;;;7366537;19;20192;-74
2024/01/25 05:05:28;;;;;;;0.90;0.57;;;11.30;99.90;;;;;;7361021;19;20202;-74
2024/01/25 05:07:53;;;;;;;0.87;0.60;;;11.30;99.90;;;;;;7366816;19;20185;-74
2024/01/25 05:10:19;;;;;;;4.27;1.10;;;11.20;99.90;;;;;;7388831;19;20134;-74
2024/01/25 05:12:44;;;;;;;2.13;0.83;;;11.10;99.90;;;;;;7365118;19;20186;-74
2024/01/25 05:15:10;;;;;;;2.93;1.10;;;11.10;99.90;;;;;;7367634;19;20190;-73
2024/01/25 05:17:36;;;;;;;1.80;0.83;;;11.10;99.90;;;;;;7364989;19;20218;-74
2024/01/25 05:20:02;;;;;;;1.70;0.67;;;11.10;99.90;;;;;;7365617;19;20178;-75
2024/01/25 05:22:28;;;;;;;6.87;1.70;;;11.10;99.90;;;;;;7364362;19;20603;-74
2024/01/25 05:24:54;;;;;;;2.07;0.80;;;11.00;99.90;;;;;;7386948;19;20151;-74
2024/01/25 05:27:19;;;;;;;1.60;0.97;;;11.10;99.90;;;;;;7365649;19;20557;-74
2024/01/25 05:29:45;;;;;;;2.23;0.60;;;10.90;99.90;;;;;;7364537;19;20186;-73
2024/01/25 05:32:10;;;;;;;1.40;1.00;;;10.90;99.90;;;;;;7365556;19;20194;-73
2024/01/25 05:34:36;;;;;;;1.23;0.67;;;11.00;99.90;;;;;;7366010;19;20170;-74
2024/01/25 05:37:02;;;;;;;1.90;0.50;;;11.00;99.90;;;;;;7386580;19;20169;-74
2024/01/25 05:39:27;;;;;;;1.97;1.43;;;11.00;99.90;;;;;;7365062;19;20198;-74
2024/01/25 05:41:53;;;;;;;1.97;1.53;;;11.00;99.90;;;;;;7366601;19;20224;-74
2024/01/25 05:44:18;;;;;;;3.83;1.43;;;11.10;99.90;;;;;;7366363;19;20182;-74
2024/01/25 05:46:44;;;;;;;2.83;0.80;;;10.90;99.90;;;;;;7366639;19;20207;-75
2024/01/25 05:49:10;;;;;;;0.70;0.63;;;10.80;99.90;;;;;;7386251;19;20552;-74
2024/01/25 05:51:35;;;;;;;3.40;0.80;;;11.00;99.90;;;;;;7366625;19;20190;-73
2024/01/25 05:54:01;;;;;;;1.97;0.93;;;11.10;99.90;;;;;;7364969;19;20202;-74
2024/01/25 05:56:27;;;;;;;1.45;0.98;;;11.00;99.90;;;;;;7365866;19;20214;-75
2024/01/25 05:58:52;;;;;;;2.43;1.00;;;11.00;99.90;;;;;;7364556;19;20198;-73
2024/01/25 06:01:19;;;;;;;0.80;0.50;;;10.90;99.90;;;;;;7388674;19;20185;-74
2024/01/25 06:03:44;;;;;;;2.53;0.77;;;11.00;99.90;;;;;;7361078;19;20181;-72
2024/01/25 06:06:10;;;;;;;0.83;0.30;;;10.90;99.90;;;;;;7364607;19;20201;-75
2024/01/25 06:08:35;;;;;;;1.50;0.87;;;10.80;99.90;;;;;;7365113;19;20261;-76
2024/01/25 06:11:01;;;;;;;1.60;0.67;;;10.90;99.90;;;;;;7366148;19;20193;-75
2024/01/25 06:13:27;;;;;;;1.47;1.10;;;10.90;99.90;;;;;;7363505;19;20150;-77
2024/01/25 06:15:52;;;;;;;2.10;1.17;;;11.00;99.90;;;;;;7383238;19;20130;-75
2024/01/25 06:18:18;;;;;;;1.37;0.93;;;10.90;99.90;;;;;;7370832;19;20189;-74
2024/01/25 06:20:44;;;;;;;3.30;0.97;;;11.00;99.90;;;;;;7365792;19;20584;-75
2024/01/25 06:23:09;;;;;;;3.10;1.03;;;11.00;99.90;;;;;;7372916;19;20800;-74
2024/01/25 06:25:35;;;;;;;1.90;1.00;;;10.90;99.90;;;;;;7369928;19;20608;-75
2024/01/25 06:28:01;;;;;;;0.87;0.67;;;10.80;99.90;;;;;;7394636;19;20127;-74
2024/01/25 06:30:27;;;;;;;2.20;0.90;;;10.90;99.90;;;;;;7368761;19;20241;-74
2024/01/25 06:32:53;;;;;;;2.63;1.40;;;10.90;99.90;;;;;;7370043;19;20527;-74
2024/01/25 06:35:18;;;;;;;2.90;1.00;;;10.80;99.90;;;;;;7369608;19;20186;-74
2024/01/25 06:37:44;;;;;;;0.73;0.70;;;10.80;99.90;;;;;;7369491;19;20214;-75
2024/01/25 06:40:10;;;;;;;0.77;0.73;;;10.80;99.90;;;;;;7393613;19;20155;-74
2024/01/25 06:42:38;;;;;;;1.50;0.73;;;10.80;99.90;;;;;;7370229;19;20182;-75
2024/01/25 06:45:04;;;;;;;2.27;0.77;;;10.80;99.90;;;;;;7369989;19;20201;-75
2024/01/25 06:47:29;;;;;;;2.67;1.40;;;10.80;99.90;;;;;;7372097;19;20185;-75
2024/01/25 06:49:55;;;;;;;1.17;0.80;;;10.80;99.90;;;;;;7369621;19;20186;-74
2024/01/25 06:52:21;;;;;;;1.80;1.03;;;10.70;99.90;;;;;;7381053;19;20226;-75
2024/01/25 06:54:46;;;;;;;3.17;0.90;;;10.80;99.90;;;;;;7391423;19;20150;-74
2024/01/25 06:57:14;;;;;;;2.97;0.90;;;10.80;99.90;;;;;;7370423;19;20186;-73
2024/01/25 06:59:39;;;;;;;2.00;1.17;;;10.80;99.90;;;;;;7369186;19;20800;-73
2024/01/25 07:02:06;;;;;;;2.17;1.00;;;10.80;99.90;;;;;;7370421;19;20182;-74
2024/01/25 07:04:32;;;;;;;3.17;0.70;;;10.80;99.90;;;;;;7369070;19;20150;-74
2024/01/25 07:06:59;;;;;;;2.37;1.00;;;10.80;99.90;;;;;;7391386;19;20210;-75
2024/01/25 07:09:25;;;;;;;2.03;0.97;;;10.80;99.90;;;;;;7369966;19;20186;-74
2024/01/25 07:11:51;;;;;;;1.80;1.50;;;10.70;99.90;;;;;;7370840;19;20253;-75
2024/01/25 07:14:17;;;;;;;3.43;1.10;;;10.70;99.90;;;;;;7368641;19;20190;-76
2024/01/25 07:16:42;;;;;;;2.20;0.97;;;10.60;99.90;;;;;;7369705;19;20201;-75
2024/01/25 07:19:08;;;;;;;3.23;1.47;;;10.70;99.90;;;;;;7391817;19;20138;-76
2024/01/25 07:21:37;;;;;;;1.80;1.00;;;10.70;99.90;;;;;;7364857;19;20186;-75
2024/01/25 07:24:04;;;;;;;3.00;0.80;;;10.70;99.90;;;;;;7364167;19;20441;-75
2024/01/25 07:26:30;;;;;;;2.57;1.43;;;10.80;99.90;;;;;;7369933;19;20186;-74
2024/01/25 07:28:58;;;;;;;2.80;1.17;;;10.80;99.90;;;;;;7365276;19;20210;-75
2024/01/25 07:31:27;;;;;;;1.20;0.73;;;10.70;99.90;;;;;;7369619;19;20481;-75
2024/01/25 07:33:53;;;;;;;2.63;0.73;;;10.80;99.90;;;;;;7389344;19;20131;-74
2024/01/25 07:36:20;;;;;;;1.00;0.93;;;10.70;99.90;;;;;;7367399;19;20178;-75
2024/01/25 07:38:51;;;;;;;1.20;0.77;;;10.80;99.90;;;;;;7368370;19;20958;-75
2024/01/25 07:41:17;;;;;;;1.20;0.87;;;10.80;99.90;;;;;;7368561;19;20202;-75
2024/01/25 07:43:42;;;;;;;1.97;1.17;;;10.80;99.90;;;;;;7369895;19;20197;-74
2024/01/25 07:46:08;;;;;;;1.77;1.07;;;10.70;99.90;;;;;;7391568;19;20150;-74
2024/01/25 07:48:34;;;;;;;1.07;0.97;;;10.80;99.90;;;;;;7370031;19;20936;-74
2024/01/25 07:50:59;;;;;;;4.00;2.20;;;10.70;99.90;;;;;;7367629;19;20194;-74
2024/01/25 07:53:25;;;;;;;0.90;0.70;;;10.90;99.90;;;;;;7370083;19;20189;-74
2024/01/25 07:55:51;;;;;;;3.07;1.57;;;10.90;99.90;;;;;;7368264;19;20204;-75
2024/01/25 07:58:16;;;;;;;3.30;1.07;;;10.80;99.90;;;;;;7392062;19;20130;-74
2024/01/25 08:00:45;;;;;;;2.33;1.00;;;10.80;99.90;;;;;;7368647;19;20212;-74
2024/01/25 08:03:11;;;;;;;1.73;1.10;;;10.90;99.90;;;;;;7367996;19;20185;-74
2024/01/25 08:05:37;;;;;;;8.93;1.80;;;10.60;99.90;;;;;;7368545;19;20202;-75
2024/01/25 08:08:03;;;;;;;1.93;1.10;;;10.50;99.90;;;;;;7371418;19;20192;-74
2024/01/25 08:10:28;;;;;;;3.60;1.87;;;10.70;99.90;;;;;;7371566;19;20131;-74
2024/01/25 08:12:54;;;;;;;3.83;0.93;;;10.70;99.90;;;;;;7390717;19;20142;-75
2024/01/25 08:15:20;;;;;;;2.43;0.90;;;10.60;99.90;;;;;;7370386;19;20193;-75
2024/01/25 08:17:45;;;;;;;1.33;1.00;;;10.40;99.90;;;;;;7365020;19;20193;-77
2024/01/25 08:20:13;;;;;;;2.97;1.63;;;10.50;99.90;;;;;;7366767;19;20271;-76
2024/01/25 08:22:40;;;;;;;2.50;0.97;;;10.50;99.90;;;;;;7368295;19;20184;-76
2024/01/25 08:25:06;;;;;;;1.73;0.90;;;10.50;99.90;;;;;;7390439;19;20556;-74
2024/01/25 08:27:32;;;;;;;1.70;1.02;;;10.60;99.90;;;;;;7367792;19;20193;-74
2024/01/25 08:29:57;;;;;;;1.40;0.70;;;10.70;99.90;;;;;;7367773;19;20186;-74
2024/01/25 08:32:23;;;;;;;1.07;0.80;;;10.60;99.90;;;;;;7367277;19;20191;-74
2024/01/25 08:34:49;;;;;;;4.97;0.77;;;10.60;99.90;;;;;;7368386;19;20182;-73
2024/01/25 08:37:14;;;;;;;4.10;1.00;;;10.70;99.90;;;;;;7390762;19;20229;-74
2024/01/25 08:39:40;;;;;;;0.97;0.87;;;10.80;99.90;;;;;;7364392;19;20193;-73
2024/01/25 08:42:06;;;;;;;2.20;0.70;;;10.80;99.90;;;;;;7368101;19;20647;-74
2024/01/25 08:44:32;;;;;;;4.63;0.83;;;10.80;99.90;;;;;;7366216;19;20193;-75
2024/01/25 08:46:58;;;;;;;4.80;1.10;;;10.80;99.90;;;;;;7365479;19;20204;-73
2024/01/25 08:49:23;;;;;;;3.83;1.30;;;10.90;99.90;;;;;;7367496;19;20146;-75
2024/01/25 08:51:50;;;;;;;5.07;1.33;;;10.80;99.90;;;;;;7389343;19;20226;-75
2024/01/25 08:54:17;;;;;;;4.15;1.83;;;10.90;99.90;;;;;;7365259;19;20254;-74
2024/01/25 08:56:42;;;;;;;3.47;1.70;;;10.80;99.90;;;;;;7365157;19;20200;-75
2024/01/25 08:59:08;;;;;;;4.73;1.30;;;10.80;99.90;;;;;;7366905;19;20273;-74
2024/01/25 09:01:33;;;;;;;1.80;0.77;;;10.60;99.90;;;;;;7366864;19;20520;-74
2024/01/25 09:04:02;;;;;;;2.40;0.83;;;10.70;99.90;;;;;;7387735;19;20697;-75
2024/01/25 09:06:30;;;;;;;2.80;1.27;;;10.90;99.90;;;;;;7365007;19;20194;-75
2024/01/25 09:08:55;;;;;;;1.93;1.00;;;10.90;99.90;;;;;;7367528;19;20189;-75
2024/01/25 09:11:21;;;;;;;1.20;0.60;;;10.90;99.90;;;;;;7365452;19;20554;-74
2024/01/25 09:13:47;;;;;;;2.50;1.17;;;10.80;99.90;;;;;;7365485;19;20190;-75
2024/01/25 09:16:14;;;;;;;2.80;1.87;;;10.80;99.90;;;;;;7387986;19;20134;-77
2024/01/25 09:18:39;;;;;;;1.33;1.03;;;10.90;99.90;;;;;;7368780;19;20182;-77
2024/01/25 09:21:05;;;;;;;1.23;0.77;;;11.00;99.90;;;;;;7367268;19;20185;-78
2024/01/25 09:23:31;;;;;;;1.50;0.90;;;11.00;99.90;;;;;;7365721;19;20547;-78
2024/01/25 09:25:56;;;;;;;5.73;1.43;;;11.10;99.90;;;;;;7369662;19;20185;-78
2024/01/25 09:28:22;;;;;;;2.90;1.40;;;11.10;99.90;;;;;;7368401;19;20130;-77
2024/01/25 09:30:47;;;;;;;2.93;1.27;;;10.70;99.90;;;;;;7390941;19;20154;-78
2024/01/25 09:33:14;;;;;;;3.70;1.27;;;10.90;99.90;;;;;;7366810;19;20219;-78
2024/01/25 09:35:40;;;;;;;2.37;0.83;;;10.90;99.90;;;;;;7365361;19;20210;-76
2024/01/25 09:38:07;;;;;;;4.43;1.30;;;11.10;99.90;;;;;;7364664;19;20190;-77
2024/01/25 09:40:33;;;;;;;1.67;0.57;;;11.10;99.90;;;;;;7366990;19;20186;-78
2024/01/25 09:42:59;;;;;;;2.93;1.03;;;11.20;99.90;;;;;;7386499;19;20354;-77
2024/01/25 09:45:25;;;;;;;3.80;1.23;;;11.20;99.90;;;;;;7366220;19;20703;-76
2024/01/25 09:47:50;;;;;;;1.08;0.85;;;11.20;99.90;;;;;;7364587;19;20986;-76
2024/01/25 09:50:16;;;;;;;1.97;0.80;;;11.20;99.90;;;;;;7364077;19;20186;-78
2024/01/25 09:52:46;;;;;;;3.17;0.90;;;11.30;99.90;;;;;;7368131;19;20197;-73
2024/01/25 09:55:17;;;;;;;1.70;1.27;;;11.40;99.90;;;;;;7387979;19;20179;-75
2024/01/25 09:57:46;;;;;;;2.93;1.33;;;11.50;99.90;;;;;;7367724;19;20183;-76
2024/01/25 10:00:13;;;;;;;1.33;0.63;;;11.60;99.90;;;;;;7364170;19;20189;-75
2024/01/25 10:02:39;;;;;;;1.10;0.70;;;11.60;99.90;;;;;;7364789;19;20206;-75
2024/01/25 10:05:05;;;;;;;2.57;1.40;;;11.70;99.90;;;;;;7362065;19;20204;-73
2024/01/25 10:07:44;;;;;;;3.33;1.27;;;11.70;99.90;;;;;;7365317;19;20173;-75
2024/01/25 10:10:11;;;;;;;1.55;0.85;;;11.70;99.90;;;;;;7384710;19;20150;-76
2024/01/25 10:12:38;;;;;;;3.47;1.40;;;11.80;99.90;;;;;;7367054;19;20193;-76
2024/01/25 10:15:05;;;;;;;2.43;1.27;;;11.90;99.90;;;;;;7366688;19;20655;-73
2024/01/25 10:17:31;;;;;;;3.78;1.65;;;11.90;99.90;;;;;;7362806;19;20717;-72
2024/01/25 10:19:57;;;;;;;2.33;0.88;;;11.90;99.90;;;;;;7365752;19;20189;-72
2024/01/25 10:22:22;;;;;;;3.53;1.73;;;11.90;99.90;;;;;;7364575;19;20214;-73
2024/01/25 10:24:53;;;;;;;2.67;1.00;;;11.90;99.90;;;;;;7386265;19;20151;-72
2024/01/25 10:27:19;;;;;;;2.17;1.05;;;11.80;99.90;;;;;;7364148;19;20186;-73
2024/01/25 10:29:44;;;;;;;1.23;0.90;;;11.90;99.90;;;;;;7363086;19;20218;-75
2024/01/25 10:32:10;;;;;;;1.03;0.87;;;11.80;99.90;;;;;;7364113;19;20306;-75
2024/01/25 10:34:37;;;;;;;0.53;0.53;;;11.90;99.90;;;;;;7364649;19;20151;-76
2024/01/25 10:37:07;;;;;;;1.30;1.20;;;12.00;99.90;;;;;;7384602;19;20169;-74
2024/01/25 10:39:33;;;;;;;1.83;1.00;;;11.90;99.90;;;;;;7362636;19;20186;-74
2024/01/25 10:42:00;;;;;;;0.67;0.57;;;11.90;99.90;;;;;;7362924;19;20229;-74
2024/01/25 10:44:26;;;;;;;3.03;1.17;;;12.00;99.90;;;;;;7361737;19;20555;-75
2024/01/25 10:46:54;;;;;;;3.23;1.47;;;12.10;99.90;;;;;;7365232;19;20190;-74
2024/01/25 10:49:21;;;;;;;4.97;1.17;;;12.20;99.90;;;;;;7387398;19;20147;-74
2024/01/25 10:51:47;;;;;;;1.60;0.80;;;12.20;99.90;;;;;;7387725;19;20162;-75
2024/01/25 10:54:14;;;;;;;3.20;0.80;;;12.20;99.90;;;;;;7362199;19;20186;-75
2024/01/25 10:56:43;;;;;;;1.83;0.77;;;12.30;99.90;;;;;;7364131;19;20191;-74
2024/01/25 10:59:10;;;;;;;3.08;1.65;;;12.40;99.90;;;;;;7362799;19;20189;-74
2024/01/25 11:01:36;;;;;;;0.43;0.43;;;12.40;99.90;;;;;;7367215;19;20139;-75
2024/01/25 11:04:02;;;;;;;2.50;1.15;;;12.40;99.90;;;;;;7388977;19;21191;-75
2024/01/25 11:06:28;;;;;;;1.27;0.88;;;12.50;99.90;;;;;;7370487;19;20198;-75
2024/01/25 11:09:07;;;;;;;2.20;0.70;;;12.40;99.90;;;;;;7369951;19;20245;-75
2024/01/25 11:11:35;;;;;;;1.67;1.23;;;12.30;99.90;;;;;;7371360;19;20212;-74
2024/01/25 11:14:01;;;;;;;1.13;1.02;;;12.20;99.90;;;;;;7371137;19;20250;-75
2024/01/25 11:16:33;;;;;;;2.80;1.65;;;12.30;99.90;;;;;;7369223;19;20461;-74
2024/01/25 11:19:04;;;;;;;1.25;0.60;;;12.30;99.90;;;;;;7393826;19;20155;-75
2024/01/25 11:21:47;;;;;;;2.50;1.38;;;12.40;99.90;;;;;;7371014;19;20190;-74
2024/01/25 11:24:21;;;;;;;3.33;0.97;;;12.50;99.90;;;;;;7366544;19;20190;-75
2024/01/25 11:26:47;;;;;;;3.70;1.42;;;12.60;99.90;;;;;;7370744;19;20193;-75
2024/01/25 11:29:17;;;;;;;3.58;1.20;;;12.50;99.90;;;;;;7370533;19;20227;-74
2024/01/25 11:31:44;;;;;;;1.92;0.93;;;12.60;99.90;;;;;;7372877;19;20217;-75
2024/01/25 11:34:11;;;;;;;1.58;0.90;;;12.60;99.90;;;;;;7390093;19;20130;-76
2024/01/25 11:36:37;;;;;;;3.28;1.27;;;12.60;99.90;;;;;;7369882;19;20539;-76
2024/01/25 11:39:03;;;;;;;1.52;0.80;;;12.70;99.90;;;;;;7367650;19;20691;-76
2024/01/25 11:41:31;;;;;;;1.40;0.90;;;12.60;99.90;;;;;;7368907;19;20198;-76
2024/01/25 11:43:56;;;;;;;0.95;0.75;;;12.60;99.90;;;;;;7368237;19;20188;-76
2024/01/25 11:46:22;;;;;;;1.67;0.80;;;12.70;99.90;;;;;;7369028;19;20604;-75
2024/01/25 11:48:48;;;;;;;0.60;0.57;;;12.60;99.90;;;;;;7391431;19;20143;-76
2024/01/25 11:51:14;;;;;;;0.80;0.50;;;12.60;99.90;;;;;;7367364;19;20570;-75
2024/01/25 11:53:40;;;;;;;0.90;0.60;;;12.70;99.90;;;;;;7369959;19;20178;-75
2024/01/25 11:56:09;;;;;;;5.53;1.40;;;12.60;99.90;;;;;;7369127;19;20194;-76
2024/01/25 11:58:37;;;;;;;1.73;0.77;;;12.90;99.90;;;;;;7370167;19;20126;-76
2024/01/25 12:01:05;;;;;;;1.60;0.77;;;12.90;99.90;;;;;;7391068;19;20619;-75
2024/01/25 12:03:32;;;;;;;2.55;0.93;;;12.70;99.90;;;;;;7367778;19;20675;-75
2024/01/25 12:05:59;;;;;;;0.65;0.38;;;12.80;99.90;;;;;;7366196;19;20202;-76
2024/01/25 12:08:24;;;;;;;0.60;0.43;;;12.90;99.90;;;;;;7368123;19;20210;-75
2024/01/25 12:10:50;;;;;;;1.00;0.52;;;13.00;99.90;;;;;;7367307;19;20598;-74
2024/01/25 12:13:18;;;;;;;1.05;0.63;;;13.20;99.90;;;;;;7389241;19;20162;-75
2024/01/25 12:15:45;;;;;;;1.15;0.50;;;13.30;99.90;;;;;;7369488;19;20273;-76
2024/01/25 12:18:11;;;;;;;1.48;0.57;;;13.40;99.90;;;;;;7371214;19;20282;-76
2024/01/25 12:20:36;;;;;;;2.63;0.82;;;13.40;99.90;;;;;;7368389;19;20212;-75
2024/01/25 12:23:02;;;;;;;2.80;0.77;;;13.20;99.90;;;;;;7367096;19;20599;-75
2024/01/25 12:25:28;;;;;;;1.23;0.75;;;13.10;99.90;;;;;;7368851;19;20568;-75
2024/01/25 12:27:54;;;;;;;2.03;1.13;;;13.00;99.90;;;;;;7389191;19;20258;-76
2024/01/25 12:30:19;;;;;;;2.83;0.50;;;12.90;99.90;;;;;;7366424;19;20186;-75
2024/01/25 12:32:49;;;;;;;1.13;0.63;;;12.80;99.90;;;;;;7367990;19;20190;-75
2024/01/25 12:35:14;;;;;;;2.53;1.05;;;12.60;99.90;;;;;;7365346;19;20197;-75
2024/01/25 12:37:40;;;;;;;1.23;0.80;;;12.60;99.90;;;;;;7364299;19;20665;-75
2024/01/25 12:40:06;;;;;;;0.73;0.73;;;12.60;99.90;;;;;;7389067;19;20130;-75
2024/01/25 12:42:32;;;;;;;3.03;1.13;;;12.50;99.90;;;;;;7367336;19;20178;-75